createdAt,value
2018-08-06T00:00:30.395Z,27
2018-08-06T00:01:45.185Z,27
2018-08-06T00:02:59.914Z,27
2018-08-06T00:04:14.633Z,27
2018-08-06T00:05:29.864Z,27
2018-08-06T00:06:44.377Z,27
2018-08-06T00:07:58.869Z,27
2018-08-06T00:09:13.342Z,27
2018-08-06T00:10:27.598Z,27
2018-08-06T00:11:43.018Z,27
2018-08-06T00:12:57.278Z,27
2018-08-06T00:14:11.801Z,27
2018-08-06T00:15:27.206Z,27
2018-08-06T00:16:42.243Z,27
2018-08-06T00:17:57.294Z,27
2018-08-06T00:19:11.791Z,27
2018-08-06T00:20:26.174Z,27
2018-08-06T00:21:41.043Z,27
2018-08-06T00:22:56.055Z,27
2018-08-06T00:24:10.529Z,27
2018-08-06T00:25:24.353Z,27
2018-08-06T00:26:38.583Z,27
2018-08-06T00:27:52.573Z,27
2018-08-06T00:29:07.080Z,27
2018-08-06T00:30:21.682Z,27
2018-08-06T00:31:36.494Z,27
2018-08-06T00:32:50.513Z,27
2018-08-06T00:34:04.802Z,27
2018-08-06T00:35:19.354Z,27
2018-08-06T00:36:34.519Z,27
2018-08-06T00:37:48.732Z,27
2018-08-06T00:39:03.758Z,27
2018-08-06T00:40:17.762Z,27
2018-08-06T00:41:32.016Z,27
2018-08-06T00:42:46.815Z,27
2018-08-06T00:44:01.327Z,27
2018-08-06T00:45:15.563Z,27
2018-08-06T00:46:30.407Z,27
2018-08-06T00:47:45.400Z,27
2018-08-06T00:49:00.492Z,27
2018-08-06T00:50:15.284Z,27
2018-08-06T00:54:44.887Z,27
2018-08-06T00:55:59.341Z,27
2018-08-06T00:57:13.616Z,27
2018-08-06T00:58:28.642Z,27
2018-08-06T00:59:43.584Z,27
2018-08-06T01:00:58.107Z,27
2018-08-06T01:02:12.594Z,27
2018-08-06T01:03:27.069Z,27
2018-08-06T01:04:41.307Z,27
2018-08-06T01:05:56.319Z,27
2018-08-06T01:07:10.605Z,27
2018-08-06T01:08:25.668Z,27
2018-08-06T01:09:40.779Z,27
2018-08-06T01:10:55.308Z,27
2018-08-06T01:12:09.281Z,27
2018-08-06T01:13:24.076Z,27
2018-08-06T01:14:38.587Z,27
2018-08-06T01:15:53.071Z,27
2018-08-06T01:17:07.833Z,27
2018-08-06T01:18:22.842Z,27
2018-08-06T01:19:37.665Z,27
2018-08-06T01:20:52.868Z,27
2018-08-06T01:22:07.633Z,27
2018-08-06T01:23:21.921Z,27
2018-08-06T01:24:36.532Z,27
2018-08-06T01:25:51.843Z,27
2018-08-06T01:27:06.176Z,27
2018-08-06T01:28:20.435Z,27
2018-08-06T01:29:34.875Z,27
2018-08-06T01:30:49.950Z,27
2018-08-06T01:32:04.871Z,27
2018-08-06T01:33:19.538Z,27
2018-08-06T01:34:33.978Z,27
2018-08-06T01:35:50.428Z,27
2018-08-06T01:37:04.863Z,27
2018-08-06T01:38:19.440Z,27
2018-08-06T01:39:34.635Z,27
2018-08-06T01:40:49.441Z,27
2018-08-06T01:42:04.984Z,27
2018-08-06T01:43:19.759Z,27
2018-08-06T01:44:34.416Z,27
2018-08-06T01:45:49.235Z,27
2018-08-06T01:47:03.806Z,27
2018-08-06T01:48:18.352Z,27
2018-08-06T01:49:32.392Z,27
2018-08-06T01:50:47.860Z,27
2018-08-06T01:52:02.370Z,27
2018-08-06T01:53:16.344Z,27
2018-08-06T01:54:30.583Z,27
2018-08-06T01:55:45.419Z,27
2018-08-06T01:57:00.837Z,27
2018-08-06T01:58:15.332Z,27
2018-08-06T01:59:29.831Z,27
2018-08-06T02:00:43.981Z,27
2018-08-06T02:01:58.466Z,27
2018-08-06T02:03:13.093Z,27
2018-08-06T02:04:27.600Z,27
2018-08-06T02:05:42.157Z,27
2018-08-06T02:06:56.196Z,27
2018-08-06T02:08:11.158Z,27
2018-08-06T02:09:25.955Z,27
2018-08-06T02:10:40.465Z,27
2018-08-06T02:11:55.236Z,27
2018-08-06T02:13:09.720Z,27
2018-08-06T02:14:24.909Z,27
2018-08-06T02:15:39.709Z,27
2018-08-06T02:16:54.298Z,27
2018-08-06T02:18:08.777Z,27
2018-08-06T02:19:23.282Z,27
2018-08-06T02:20:38.012Z,27
2018-08-06T02:21:52.390Z,27
2018-08-06T02:23:06.917Z,27
2018-08-06T02:24:22.135Z,27
2018-08-06T02:25:36.385Z,27
2018-08-06T02:26:51.614Z,27
2018-08-06T02:28:06.125Z,27
2018-08-06T02:29:21.135Z,27
2018-08-06T02:30:35.643Z,27
2018-08-06T02:31:50.724Z,27
2018-08-06T02:33:04.989Z,27
2018-08-06T02:34:19.810Z,27
2018-08-06T02:35:34.561Z,27
2018-08-06T02:36:49.047Z,27
2018-08-06T02:38:03.562Z,27
2018-08-06T02:39:18.600Z,27
2018-08-06T02:40:33.463Z,27
2018-08-06T02:41:48.221Z,27
2018-08-06T02:43:02.937Z,27
2018-08-06T02:44:17.944Z,27
2018-08-06T02:45:32.425Z,27
2018-08-06T02:46:47.346Z,27
2018-08-06T02:48:01.629Z,27
2018-08-06T02:49:16.104Z,27
2018-08-06T02:50:31.054Z,27
2018-08-06T02:51:45.737Z,27
2018-08-06T02:53:00.600Z,27
2018-08-06T02:54:14.600Z,27
2018-08-06T02:55:29.341Z,27
2018-08-06T02:56:43.835Z,27
2018-08-06T02:57:58.043Z,27
2018-08-06T02:59:12.332Z,27
2018-08-06T03:00:26.491Z,27
2018-08-06T03:01:41.001Z,27
2018-08-06T03:02:55.308Z,27
2018-08-06T03:04:09.546Z,27
2018-08-06T03:05:24.844Z,27
2018-08-06T03:06:39.353Z,27
2018-08-06T03:07:53.389Z,27
2018-08-06T03:09:07.632Z,27
2018-08-06T03:10:21.976Z,27
2018-08-06T03:11:36.871Z,27
2018-08-06T03:12:51.968Z,27
2018-08-06T03:14:06.972Z,27
2018-08-06T03:15:21.487Z,27
2018-08-06T03:16:34.960Z,27
2018-08-06T03:17:50.185Z,27
2018-08-06T03:19:04.727Z,27
2018-08-06T03:20:19.536Z,27
2018-08-06T03:21:34.261Z,27
2018-08-06T03:22:48.504Z,27
2018-08-06T03:24:03.362Z,27
2018-08-06T03:25:18.155Z,27
2018-08-06T03:26:32.100Z,27
2018-08-06T03:27:46.587Z,27
2018-08-06T03:29:02.246Z,27
2018-08-06T03:30:17.388Z,27
2018-08-06T03:31:31.892Z,27
2018-08-06T03:32:46.167Z,27
2018-08-06T03:34:00.987Z,27
2018-08-06T03:35:15.799Z,27
2018-08-06T03:36:30.563Z,26
2018-08-06T03:37:45.047Z,26
2018-08-06T03:39:00.183Z,26
2018-08-06T03:40:14.906Z,26
2018-08-06T03:41:30.002Z,26
2018-08-06T03:42:45.187Z,26
2018-08-06T03:43:59.515Z,26
2018-08-06T03:45:14.018Z,26
2018-08-06T03:46:29.052Z,26
2018-08-06T03:47:43.532Z,26
2018-08-06T03:48:58.552Z,26
2018-08-06T03:50:13.307Z,26
2018-08-06T03:51:27.521Z,26
2018-08-06T03:52:42.760Z,26
2018-08-06T03:53:57.643Z,26
2018-08-06T03:55:12.640Z,26
2018-08-06T03:56:26.891Z,26
2018-08-06T03:57:41.115Z,26
2018-08-06T03:58:55.623Z,26
2018-08-06T04:00:09.763Z,26
2018-08-06T04:01:24.561Z,26
2018-08-06T04:02:39.161Z,26
2018-08-06T04:03:53.650Z,26
2018-08-06T04:05:08.568Z,26
2018-08-06T04:07:14.089Z,26
2018-08-06T04:08:28.327Z,26
2018-08-06T04:09:42.578Z,26
2018-08-06T04:10:57.005Z,26
2018-08-06T04:12:12.016Z,26
2018-08-06T04:13:30.514Z,26
2018-08-06T04:14:45.499Z,26
2018-08-06T04:16:00.350Z,26
2018-08-06T04:17:15.341Z,26
2018-08-06T04:18:29.786Z,26
2018-08-06T04:19:45.382Z,26
2018-08-06T04:21:00.689Z,26
2018-08-06T04:22:15.473Z,26
2018-08-06T04:23:29.480Z,26
2018-08-06T04:24:43.999Z,26
2018-08-06T04:25:59.064Z,26
2018-08-06T04:27:13.549Z,26
2018-08-06T04:28:28.266Z,26
2018-08-06T04:29:42.248Z,26
2018-08-06T04:30:56.224Z,26
2018-08-06T04:32:11.285Z,27
2018-08-06T04:33:25.681Z,27
2018-08-06T04:34:39.927Z,27
2018-08-06T04:35:55.020Z,27
2018-08-06T04:37:09.510Z,28
2018-08-06T04:38:27.113Z,28
2018-08-06T04:39:41.634Z,28
2018-08-06T04:40:56.237Z,28
2018-08-06T04:42:10.722Z,29
2018-08-06T04:43:25.490Z,29
2018-08-06T04:44:40.633Z,29
2018-08-06T04:45:55.921Z,29
2018-08-06T04:47:10.307Z,30
2018-08-06T04:48:24.795Z,30
2018-08-06T04:49:38.545Z,30
2018-08-06T04:50:53.094Z,30
2018-08-06T04:52:07.865Z,30
2018-08-06T04:53:22.401Z,30
2018-08-06T04:54:36.662Z,31
2018-08-06T04:55:50.963Z,31
2018-08-06T04:57:05.992Z,31
2018-08-06T04:58:20.751Z,31
2018-08-06T04:59:35.495Z,31
2018-08-06T05:00:49.673Z,31
2018-08-06T05:02:04.223Z,31
2018-08-06T05:03:19.297Z,32
2018-08-06T05:04:33.314Z,32
2018-08-06T05:05:47.817Z,32
2018-08-06T05:07:01.923Z,32
2018-08-06T05:08:16.436Z,32
2018-08-06T05:09:32.775Z,32
2018-08-06T05:10:47.544Z,32
2018-08-06T05:12:02.042Z,33
2018-08-06T05:13:16.858Z,33
2018-08-06T05:14:31.111Z,33
2018-08-06T05:15:45.647Z,33
2018-08-06T05:17:00.315Z,33
2018-08-06T05:18:14.579Z,33
2018-08-06T05:19:29.256Z,33
2018-08-06T05:20:43.738Z,33
2018-08-06T05:21:59.107Z,33
2018-08-06T05:23:13.369Z,33
2018-08-06T05:24:27.894Z,32
2018-08-06T05:25:42.426Z,32
2018-08-06T05:26:57.260Z,31
2018-08-06T05:28:11.790Z,31
2018-08-06T05:29:26.343Z,31
2018-08-06T05:30:40.619Z,30
2018-08-06T05:31:55.913Z,30
2018-08-06T05:33:10.163Z,30
2018-08-06T05:34:25.227Z,30
2018-08-06T05:35:39.475Z,30
2018-08-06T05:36:54.398Z,29
2018-08-06T05:38:09.434Z,29
2018-08-06T05:39:22.933Z,29
2018-08-06T05:40:37.315Z,29
2018-08-06T05:41:52.428Z,29
2018-08-06T05:43:07.189Z,29
2018-08-06T05:44:22.291Z,29
2018-08-06T05:45:37.353Z,29
2018-08-06T05:46:52.694Z,29
2018-08-06T05:48:07.204Z,29
2018-08-06T05:49:21.446Z,29
2018-08-06T05:50:35.469Z,29
2018-08-06T05:51:51.099Z,29
2018-08-06T05:53:05.992Z,29
2018-08-06T05:54:20.255Z,28
2018-08-06T05:55:34.518Z,28
2018-08-06T05:56:48.763Z,28
2018-08-06T05:58:03.514Z,28
2018-08-06T05:59:17.796Z,28
2018-08-06T06:00:31.800Z,28
2018-08-06T06:01:46.305Z,28
2018-08-06T06:03:01.413Z,28
2018-08-06T06:04:16.419Z,28
2018-08-06T06:05:31.491Z,28
2018-08-06T06:06:45.994Z,28
2018-08-06T06:08:01.034Z,28
2018-08-06T06:09:15.757Z,28
2018-08-06T06:10:30.247Z,28
2018-08-06T06:11:44.527Z,28
2018-08-06T06:12:59.742Z,28
2018-08-06T06:14:14.753Z,28
2018-08-06T06:15:29.561Z,28
2018-08-06T06:16:43.825Z,28
2018-08-06T06:17:58.885Z,28
2018-08-06T06:19:13.618Z,28
2018-08-06T06:20:29.296Z,28
2018-08-06T06:21:44.191Z,28
2018-08-06T06:22:58.685Z,28
2018-08-06T06:24:13.386Z,28
2018-08-06T06:25:27.644Z,28
2018-08-06T06:26:42.169Z,28
2018-08-06T06:27:56.959Z,28
2018-08-06T06:29:11.954Z,28
2018-08-06T06:30:26.847Z,28
2018-08-06T06:31:41.699Z,28
2018-08-06T06:32:55.683Z,28
2018-08-06T06:34:10.518Z,28
2018-08-06T06:35:24.520Z,28
2018-08-06T06:36:39.517Z,28
2018-08-06T06:37:54.566Z,28
2018-08-06T06:39:09.179Z,28
2018-08-06T06:40:23.738Z,28
2018-08-06T06:41:38.499Z,28
2018-08-06T06:42:53.556Z,28
2018-08-06T06:44:07.980Z,28
2018-08-06T06:45:22.004Z,28
2018-08-06T06:46:36.902Z,28
2018-08-06T06:47:51.267Z,28
2018-08-06T06:49:07.352Z,28
2018-08-06T06:50:21.896Z,28
2018-08-06T06:51:36.663Z,28
2018-08-06T06:52:51.115Z,28
2018-08-06T06:54:05.864Z,28
2018-08-06T06:55:21.108Z,28
2018-08-06T06:56:36.118Z,28
2018-08-06T06:57:50.381Z,28
2018-08-06T06:59:05.352Z,28
2018-08-06T07:00:20.306Z,28
2018-08-06T07:01:34.868Z,28
2018-08-06T07:02:49.394Z,28
2018-08-06T07:04:03.885Z,28
2018-08-06T07:05:18.816Z,28
2018-08-06T07:06:33.296Z,28
2018-08-06T07:07:47.889Z,28
2018-08-06T07:09:03.077Z,28
2018-08-06T07:10:17.724Z,28
2018-08-06T07:11:32.732Z,28
2018-08-06T07:12:47.494Z,28
2018-08-06T07:14:03.481Z,28
2018-08-06T07:15:33.319Z,28
2018-08-06T07:16:48.035Z,28
2018-08-06T07:18:02.862Z,28
2018-08-06T07:19:17.618Z,28
2018-08-06T07:20:33.959Z,28
2018-08-06T07:21:48.734Z,28
2018-08-06T07:23:03.974Z,28
2018-08-06T07:24:18.668Z,28
2018-08-06T07:25:33.797Z,28
2018-08-06T07:26:48.033Z,28
2018-08-06T07:28:02.028Z,28
2018-08-06T07:29:16.300Z,28
2018-08-06T07:30:31.708Z,28
2018-08-06T07:31:46.781Z,28
2018-08-06T07:33:01.532Z,28
2018-08-06T07:34:15.787Z,28
2018-08-06T07:35:30.362Z,28
2018-08-06T07:36:45.124Z,28
2018-08-06T07:38:00.193Z,28
2018-08-06T07:39:14.444Z,28
2018-08-06T07:40:30.974Z,28
2018-08-06T07:41:45.482Z,28
2018-08-06T07:43:00.232Z,28
2018-08-06T07:44:15.077Z,28
2018-08-06T07:45:30.496Z,28
2018-08-06T07:46:45.709Z,28
2018-08-06T07:47:59.768Z,28
2018-08-06T07:49:14.377Z,28
2018-08-06T07:50:29.572Z,28
2018-08-06T07:51:43.596Z,28
2018-08-06T07:52:58.379Z,28
2018-08-06T07:54:13.118Z,28
2018-08-06T07:55:27.634Z,28
2018-08-06T07:56:42.559Z,28
2018-08-06T07:57:57.303Z,28
2018-08-06T07:59:11.540Z,28
2018-08-06T08:00:26.056Z,28
2018-08-06T08:01:40.798Z,28
2018-08-06T08:02:55.435Z,28
2018-08-06T08:04:09.403Z,28
2018-08-06T08:05:23.897Z,28
2018-08-06T08:06:38.548Z,28
2018-08-06T08:07:53.297Z,28
2018-08-06T08:09:07.466Z,28
2018-08-06T08:10:22.001Z,28
2018-08-06T08:11:36.358Z,28
2018-08-06T08:12:51.107Z,28
2018-08-06T08:14:06.138Z,28
2018-08-06T08:15:21.105Z,28
2018-08-06T08:16:36.034Z,28
2018-08-06T08:17:50.838Z,28
2018-08-06T08:19:06.077Z,28
2018-08-06T08:20:22.020Z,29
2018-08-06T08:21:37.110Z,29
2018-08-06T08:22:51.627Z,29
2018-08-06T08:24:06.121Z,29
2018-08-06T08:25:21.379Z,29
2018-08-06T08:26:36.262Z,29
2018-08-06T08:27:50.584Z,29
2018-08-06T08:29:05.353Z,29
2018-08-06T08:30:20.147Z,29
2018-08-06T08:31:34.412Z,29
2018-08-06T08:32:49.006Z,29
2018-08-06T08:34:04.086Z,29
2018-08-06T08:35:18.921Z,29
2018-08-06T08:36:33.175Z,29
2018-08-06T08:37:47.514Z,29
2018-08-06T08:39:02.316Z,29
2018-08-06T08:40:16.887Z,29
2018-08-06T08:41:31.679Z,29
2018-08-06T08:42:46.609Z,29
2018-08-06T08:44:01.424Z,29
2018-08-06T08:45:16.217Z,29
2018-08-06T08:46:31.026Z,29
2018-08-06T08:47:45.405Z,29
2018-08-06T08:48:59.925Z,29
2018-08-06T08:50:14.921Z,29
2018-08-06T08:51:29.442Z,29
2018-08-06T08:52:59.655Z,29
2018-08-06T08:54:14.428Z,29
2018-08-06T08:55:29.254Z,29
2018-08-06T08:56:44.035Z,29
2018-08-06T08:57:58.374Z,29
2018-08-06T08:59:13.553Z,29
2018-08-06T09:00:27.872Z,29
2018-08-06T09:01:42.930Z,29
2018-08-06T09:02:57.819Z,29
2018-08-06T09:04:12.596Z,29
2018-08-06T09:05:27.758Z,29
2018-08-06T09:06:42.785Z,29
2018-08-06T09:07:57.754Z,29
2018-08-06T09:09:13.119Z,29
2018-08-06T09:10:27.115Z,29
2018-08-06T09:11:41.498Z,29
2018-08-06T09:12:56.245Z,29
2018-08-06T09:14:11.128Z,29
2018-08-06T09:15:25.310Z,29
2018-08-06T09:16:39.904Z,29
2018-08-06T09:17:55.460Z,29
2018-08-06T09:19:10.498Z,29
2018-08-06T09:20:25.261Z,29
2018-08-06T09:21:39.605Z,29
2018-08-06T09:22:54.333Z,29
2018-08-06T09:24:09.148Z,29
2018-08-06T09:25:23.153Z,29
2018-08-06T09:26:37.933Z,29
2018-08-06T09:27:53.432Z,29
2018-08-06T09:29:07.164Z,29
2018-08-06T09:30:21.959Z,29
2018-08-06T09:31:35.975Z,29
2018-08-06T09:32:50.774Z,29
2018-08-06T09:34:06.155Z,29
2018-08-06T09:35:20.440Z,29
2018-08-06T09:36:35.238Z,29
2018-08-06T09:37:49.737Z,29
2018-08-06T09:39:04.257Z,29
2018-08-06T09:40:19.584Z,29
2018-08-06T09:41:34.428Z,29
2018-08-06T09:42:48.982Z,29
2018-08-06T09:44:03.700Z,29
2018-08-06T09:45:18.019Z,29
2018-08-06T09:46:32.533Z,29
2018-08-06T09:47:47.064Z,29
2018-08-06T09:49:02.228Z,30
2018-08-06T09:50:16.517Z,30
2018-08-06T09:51:31.066Z,30
2018-08-06T09:52:45.859Z,30
2018-08-06T09:54:00.460Z,30
2018-08-06T09:55:15.262Z,30
2018-08-06T09:56:29.496Z,30
2018-08-06T09:57:44.523Z,30
2018-08-06T09:58:58.564Z,30
2018-08-06T10:00:13.012Z,30
2018-08-06T10:01:28.061Z,30
2018-08-06T10:02:42.043Z,30
2018-08-06T10:03:56.342Z,30
2018-08-06T10:05:10.604Z,30
2018-08-06T10:06:25.630Z,30
2018-08-06T10:07:40.741Z,30
2018-08-06T10:08:54.939Z,30
2018-08-06T10:10:09.767Z,30
2018-08-06T10:11:24.083Z,30
2018-08-06T10:12:38.584Z,30
2018-08-06T10:13:52.965Z,30
2018-08-06T10:15:07.029Z,30
2018-08-06T10:16:21.793Z,30
2018-08-06T10:18:01.992Z,30
2018-08-06T10:19:17.523Z,30
2018-08-06T10:20:32.394Z,30
2018-08-06T10:21:46.930Z,30
2018-08-06T10:23:01.621Z,30
2018-08-06T10:24:16.258Z,30
2018-08-06T10:25:30.761Z,30
2018-08-06T10:26:45.505Z,30
2018-08-06T10:28:00.232Z,30
2018-08-06T10:29:14.622Z,30
2018-08-06T10:30:30.343Z,30
2018-08-06T10:31:44.209Z,30
2018-08-06T10:32:58.462Z,30
2018-08-06T10:34:13.125Z,30
2018-08-06T10:35:27.913Z,30
2018-08-06T10:36:42.941Z,30
2018-08-06T10:37:57.649Z,30
2018-08-06T10:39:11.807Z,30
2018-08-06T10:40:26.712Z,30
2018-08-06T10:41:41.008Z,30
2018-08-06T10:42:55.537Z,30
2018-08-06T10:44:12.169Z,30
2018-08-06T10:45:26.797Z,30
2018-08-06T10:46:41.574Z,30
2018-08-06T10:47:56.349Z,30
2018-08-06T10:49:11.326Z,30
2018-08-06T10:50:26.369Z,30
2018-08-06T10:51:40.857Z,30
2018-08-06T10:52:55.379Z,30
2018-08-06T10:54:09.975Z,30
2018-08-06T10:55:24.511Z,30
2018-08-06T10:56:39.225Z,30
2018-08-06T10:57:53.823Z,30
2018-08-06T10:59:55.333Z,30
2018-08-06T11:01:09.577Z,30
2018-08-06T11:02:24.365Z,30
2018-08-06T11:03:38.368Z,30
2018-08-06T11:04:52.884Z,30
2018-08-06T11:06:06.849Z,30
2018-08-06T11:07:22.126Z,30
2018-08-06T11:08:36.654Z,30
2018-08-06T11:09:51.839Z,30
2018-08-06T11:11:06.403Z,30
2018-08-06T11:12:20.934Z,30
2018-08-06T11:13:35.174Z,30
2018-08-06T11:14:50.387Z,30
2018-08-06T11:16:04.679Z,30
2018-08-06T11:17:19.128Z,30
2018-08-06T11:18:35.315Z,31
2018-08-06T11:19:50.553Z,31
2018-08-06T11:21:05.062Z,31
2018-08-06T11:22:19.341Z,31
2018-08-06T11:23:33.634Z,31
2018-08-06T11:24:48.217Z,31
2018-08-06T11:26:03.013Z,31
2018-08-06T11:27:17.792Z,31
2018-08-06T11:28:32.508Z,31
2018-08-06T11:29:47.797Z,31
2018-08-06T11:31:01.513Z,31
2018-08-06T11:32:15.768Z,31
2018-08-06T11:33:30.023Z,31
2018-08-06T11:34:45.175Z,31
2018-08-06T11:35:59.954Z,31
2018-08-06T11:37:14.215Z,31
2018-08-06T11:38:28.751Z,31
2018-08-06T11:39:43.767Z,31
2018-08-06T11:40:57.512Z,31
2018-08-06T11:42:11.993Z,31
2018-08-06T11:43:26.759Z,31
2018-08-06T11:44:41.253Z,31
2018-08-06T11:45:56.276Z,31
2018-08-06T11:47:11.057Z,31
2018-08-06T11:48:25.341Z,31
2018-08-06T11:49:39.840Z,31
2018-08-06T11:50:54.821Z,31
2018-08-06T11:52:09.570Z,31
2018-08-06T11:53:23.486Z,31
2018-08-06T11:54:38.011Z,31
2018-08-06T11:56:07.887Z,31
2018-08-06T11:57:22.144Z,31
2018-08-06T11:58:36.888Z,31
2018-08-06T11:59:51.970Z,31
2018-08-06T12:01:06.499Z,31
2018-08-06T12:02:21.043Z,31
2018-08-06T12:03:35.042Z,31
2018-08-06T12:04:50.003Z,31
2018-08-06T12:06:04.313Z,31
2018-08-06T12:07:18.564Z,31
2018-08-06T12:08:33.785Z,31
2018-08-06T12:09:47.906Z,31
2018-08-06T12:11:03.104Z,31
2018-08-06T12:12:17.133Z,31
2018-08-06T12:13:32.232Z,31
2018-08-06T12:14:46.503Z,31
2018-08-06T12:17:46.436Z,31
2018-08-06T12:19:00.957Z,31
2018-08-06T12:20:15.548Z,31
2018-08-06T12:21:29.961Z,31
2018-08-06T12:22:44.697Z,31
2018-08-06T12:23:58.991Z,31
2018-08-06T12:25:14.176Z,31
2018-08-06T12:26:29.409Z,31
2018-08-06T12:27:43.409Z,31
2018-08-06T12:28:57.645Z,31
2018-08-06T12:30:11.702Z,31
2018-08-06T12:31:27.008Z,31
2018-08-06T12:32:41.591Z,31
2018-08-06T12:33:56.367Z,31
2018-08-06T12:35:10.653Z,31
2018-08-06T12:36:25.711Z,31
2018-08-06T12:37:40.379Z,31
2018-08-06T12:38:54.941Z,31
2018-08-06T12:40:09.505Z,31
2018-08-06T12:41:23.820Z,31
2018-08-06T12:42:38.399Z,31
2018-08-06T12:43:53.491Z,31
2018-08-06T12:45:07.822Z,31
2018-08-06T12:46:22.998Z,31
2018-08-06T12:47:37.450Z,31
2018-08-06T12:48:51.452Z,31
2018-08-06T12:50:06.277Z,31
2018-08-06T12:51:21.009Z,31
2018-08-06T12:52:35.893Z,31
2018-08-06T12:53:49.950Z,31
2018-08-06T12:55:04.551Z,31
2018-08-06T12:56:18.836Z,31
2018-08-06T12:57:33.681Z,31
2018-08-06T12:58:48.456Z,31
2018-08-06T13:00:03.274Z,31
2018-08-06T13:01:18.069Z,31
2018-08-06T13:02:32.877Z,31
2018-08-06T13:03:47.181Z,31
2018-08-06T13:05:03.068Z,31
2018-08-06T13:06:18.454Z,31
2018-08-06T13:07:33.638Z,31
2018-08-06T13:08:47.913Z,31
2018-08-06T13:10:02.223Z,31
2018-08-06T13:11:16.733Z,31
2018-08-06T13:12:31.590Z,31
2018-08-06T13:13:46.109Z,31
2018-08-06T13:15:00.641Z,31
2018-08-06T13:16:15.415Z,31
2018-08-06T13:17:29.448Z,31
2018-08-06T13:18:44.165Z,31
2018-08-06T13:19:58.943Z,31
2018-08-06T13:21:14.001Z,31
2018-08-06T13:22:28.239Z,31
2018-08-06T13:23:42.298Z,31
2018-08-06T13:24:57.091Z,31
2018-08-06T13:26:11.619Z,31
2018-08-06T13:27:25.870Z,32
2018-08-06T13:28:40.785Z,32
2018-08-06T13:29:55.675Z,32
2018-08-06T13:31:10.770Z,32
2018-08-06T13:32:25.099Z,32
2018-08-06T13:33:40.212Z,32
2018-08-06T13:34:55.053Z,32
2018-08-06T13:36:09.557Z,32
2018-08-06T13:37:24.107Z,32
2018-08-06T13:38:39.063Z,32
2018-08-06T13:39:53.582Z,32
2018-08-06T13:41:07.882Z,32
2018-08-06T13:42:23.362Z,32
2018-08-06T13:43:37.699Z,32
2018-08-06T13:44:52.247Z,32
2018-08-06T13:46:07.242Z,31
2018-08-06T13:47:22.280Z,31
2018-08-06T13:48:36.707Z,31
2018-08-06T13:49:51.241Z,31
2018-08-06T13:51:05.794Z,31
2018-08-06T13:52:19.817Z,31
2018-08-06T13:53:34.959Z,31
2018-08-06T13:54:50.161Z,31
2018-08-06T13:56:04.403Z,31
2018-08-06T13:57:18.149Z,31
2018-08-06T13:58:32.702Z,31
2018-08-06T13:59:47.659Z,31
2018-08-06T14:01:02.212Z,31
2018-08-06T14:02:17.002Z,31
2018-08-06T14:03:31.769Z,31
2018-08-06T14:04:46.364Z,31
2018-08-06T14:06:00.899Z,31
2018-08-06T14:07:15.852Z,32
2018-08-06T14:08:30.698Z,32
2018-08-06T14:09:45.137Z,31
2018-08-06T14:10:59.890Z,32
2018-08-06T14:12:13.424Z,31
2018-08-06T14:13:28.517Z,32
2018-08-06T14:14:43.410Z,32
2018-08-06T14:15:58.233Z,32
2018-08-06T14:17:12.670Z,32
2018-08-06T14:18:26.960Z,32
2018-08-06T14:19:41.765Z,32
2018-08-06T14:20:56.047Z,32
2018-08-06T14:22:11.069Z,32
2018-08-06T14:23:25.625Z,32
2018-08-06T14:24:39.764Z,32
2018-08-06T14:25:54.971Z,32
2018-08-06T14:27:09.290Z,32
2018-08-06T14:28:23.848Z,32
2018-08-06T14:29:38.918Z,32
2018-08-06T14:30:53.198Z,32
2018-08-06T14:32:08.439Z,32
2018-08-06T14:33:23.229Z,32
2018-08-06T14:34:38.237Z,32
2018-08-06T14:35:52.743Z,32
2018-08-06T14:37:06.733Z,32
2018-08-06T14:38:21.342Z,32
2018-08-06T14:39:35.601Z,32
2018-08-06T14:40:50.569Z,32
2018-08-06T14:42:05.096Z,32
2018-08-06T14:43:20.139Z,32
2018-08-06T14:44:34.426Z,32
2018-08-06T14:45:49.964Z,32
2018-08-06T14:47:04.758Z,32
2018-08-06T14:48:18.795Z,32
2018-08-06T14:49:33.401Z,32
2018-08-06T14:50:48.150Z,32
2018-08-06T14:52:02.905Z,32
2018-08-06T14:53:17.132Z,32
2018-08-06T14:54:31.387Z,32
2018-08-06T14:55:46.067Z,32
2018-08-06T14:57:00.580Z,32
2018-08-06T14:58:14.608Z,32
2018-08-06T14:59:29.593Z,32
2018-08-06T15:00:59.083Z,32
2018-08-06T15:02:13.370Z,32
2018-08-06T15:03:27.883Z,32
2018-08-06T15:04:42.750Z,32
2018-08-06T15:05:57.358Z,32
2018-08-06T15:07:11.932Z,32
2018-08-06T15:08:26.746Z,32
2018-08-06T15:09:40.790Z,32
2018-08-06T15:10:55.246Z,32
2018-08-06T15:12:09.828Z,32
2018-08-06T15:13:24.184Z,32
2018-08-06T15:14:38.981Z,32
2018-08-06T15:15:53.889Z,32
2018-08-06T15:17:09.037Z,32
2018-08-06T15:18:24.168Z,32
2018-08-06T15:19:38.289Z,32
2018-08-06T15:20:53.853Z,32
2018-08-06T15:22:08.128Z,32
2018-08-06T15:24:52.645Z,32
2018-08-06T15:26:07.016Z,32
2018-08-06T15:27:21.560Z,32
2018-08-06T15:28:35.849Z,32
2018-08-06T15:29:50.415Z,32
2018-08-06T15:31:05.439Z,32
2018-08-06T15:32:20.438Z,32
2018-08-06T15:33:34.731Z,32
2018-08-06T15:34:49.041Z,32
2018-08-06T15:36:03.261Z,32
2018-08-06T15:37:18.107Z,32
2018-08-06T15:38:32.387Z,32
2018-08-06T15:39:47.188Z,32
2018-08-06T15:41:02.192Z,32
2018-08-06T15:42:16.983Z,32
2018-08-06T15:43:32.336Z,32
2018-08-06T15:44:47.155Z,32
2018-08-06T15:46:03.191Z,32
2018-08-06T15:47:17.477Z,32
2018-08-06T15:48:31.884Z,32
2018-08-06T15:49:46.833Z,32
2018-08-06T15:51:01.630Z,32
2018-08-06T15:52:15.431Z,32
2018-08-06T15:53:29.444Z,32
2018-08-06T15:54:43.910Z,32
2018-08-06T15:55:58.584Z,32
2018-08-06T15:57:47.932Z,32
2018-08-06T15:59:02.551Z,32
2018-08-06T16:00:17.126Z,32
2018-08-06T16:01:31.730Z,32
2018-08-06T16:02:46.028Z,32
2018-08-06T16:04:00.474Z,32
2018-08-06T16:05:15.342Z,32
2018-08-06T16:06:30.465Z,32
2018-08-06T16:07:44.976Z,32
2018-08-06T16:08:59.516Z,32
2018-08-06T16:10:14.044Z,32
2018-08-06T16:11:28.893Z,32
2018-08-06T16:12:43.387Z,32
2018-08-06T16:13:58.617Z,32
2018-08-06T16:15:12.913Z,32
2018-08-06T16:16:26.876Z,32
2018-08-06T16:17:41.363Z,32
2018-08-06T16:18:56.171Z,32
2018-08-06T16:20:10.966Z,32
2018-08-06T16:21:25.621Z,32
2018-08-06T16:22:40.677Z,32
2018-08-06T16:23:55.222Z,32
2018-08-06T16:25:10.900Z,32
2018-08-06T16:26:25.516Z,32
2018-08-06T16:27:40.064Z,32
2018-08-06T16:28:54.793Z,32
2018-08-06T16:30:09.587Z,32
2018-08-06T16:31:24.555Z,32
2018-08-06T16:32:38.829Z,32
2018-08-06T16:33:53.362Z,32
2018-08-06T16:35:07.366Z,32
2018-08-06T16:36:21.714Z,32
2018-08-06T16:37:36.400Z,32
2018-08-06T16:38:50.939Z,32
2018-08-06T16:40:05.806Z,32
2018-08-06T16:41:20.576Z,32
2018-08-06T16:42:35.075Z,32
2018-08-06T16:43:49.866Z,32
2018-08-06T16:45:04.391Z,32
2018-08-06T16:46:18.939Z,32
2018-08-06T16:47:33.044Z,32
2018-08-06T16:48:48.032Z,32
2018-08-06T16:50:02.540Z,32
2018-08-06T16:51:17.046Z,32
2018-08-06T16:52:31.512Z,32
2018-08-06T16:54:18.186Z,32
2018-08-06T16:55:33.229Z,32
2018-08-06T16:56:47.640Z,32
2018-08-06T16:58:02.372Z,32
2018-08-06T16:59:17.144Z,32
2018-08-06T17:00:31.919Z,32
2018-08-06T17:02:29.005Z,32
2018-08-06T17:03:44.026Z,32
2018-08-06T17:04:58.324Z,32
2018-08-06T17:06:12.085Z,32
2018-08-06T17:07:26.375Z,32
2018-08-06T17:08:42.114Z,32
2018-08-06T17:09:56.551Z,32
2018-08-06T17:11:11.417Z,32
2018-08-06T17:12:25.974Z,32
2018-08-06T17:13:40.633Z,32
2018-08-06T17:14:55.165Z,32
2018-08-06T17:16:09.740Z,32
2018-08-06T17:17:24.528Z,32
2018-08-06T17:18:40.011Z,32
2018-08-06T17:19:54.784Z,32
2018-08-06T17:21:09.295Z,32
2018-08-06T17:22:24.816Z,32
2018-08-06T17:23:39.688Z,32
2018-08-06T17:24:54.253Z,32
2018-08-06T17:26:08.782Z,32
2018-08-06T17:27:23.297Z,32
2018-08-06T17:28:38.620Z,32
2018-08-06T17:29:53.289Z,32
2018-08-06T17:31:08.065Z,32
2018-08-06T17:32:22.882Z,32
2018-08-06T17:33:37.622Z,32
2018-08-06T17:34:52.335Z,32
2018-08-06T17:36:06.860Z,32
2018-08-06T17:37:21.682Z,32
2018-08-06T17:39:37.302Z,32
2018-08-06T17:40:51.848Z,32
2018-08-06T17:42:06.110Z,32
2018-08-06T17:43:20.408Z,32
2018-08-06T17:44:34.986Z,32
2018-08-06T17:45:49.291Z,32
2018-08-06T17:47:03.555Z,32
2018-08-06T17:48:17.874Z,32
2018-08-06T17:49:32.909Z,32
2018-08-06T17:50:46.957Z,32
2018-08-06T17:52:01.197Z,32
2018-08-06T17:53:16.067Z,32
2018-08-06T17:54:30.713Z,32
2018-08-06T17:55:45.617Z,32
2018-08-06T17:56:59.831Z,32